Terminal Aerodrome Forecast
Issued by NWS Wilmington, OH

Current Version | Previous Version | Graphics & Text | Print | Product List | Glossary On
Versions: 1 2 3 4 5 6 7 8 9 10 11 12 13 14 15 16
000
FTUS41 KILN 191737
TAFCMH
TAF
KCMH 191737Z 1918/2018 28007KT P6SM SCT050
     FM200200 VRB03KT P6SM FEW150
     FM201500 23006KT P6SM SCT040=

USA.gov is the U.S. government's official web portal to all federal, state and local government web resources and services.